createdAt,value
2022-10-06T00:00:50.638Z,100344.03
2022-10-06T00:03:17.600Z,100342.34
2022-10-06T00:05:44.427Z,100343.31
2022-10-06T00:08:11.715Z,100342.56
2022-10-06T00:10:40.434Z,100346.00
2022-10-06T00:13:07.534Z,100345.28
2022-10-06T00:15:34.887Z,100342.50
2022-10-06T00:18:02.717Z,100340.09
2022-10-06T00:20:29.995Z,100333.94
2022-10-06T00:22:59.851Z,100336.06
2022-10-06T00:25:28.225Z,100339.91
2022-10-06T00:27:55.763Z,100336.63
2022-10-06T00:30:25.619Z,100333.31
2022-10-06T00:32:53.808Z,100332.78
2022-10-06T00:35:21.692Z,100341.81
2022-10-06T00:37:48.916Z,100334.72
2022-10-06T00:40:16.079Z,100341.06
2022-10-06T00:42:55.132Z,100327.06
2022-10-06T00:45:43.002Z,100327.28
2022-10-06T00:48:26.323Z,100334.19
2022-10-06T00:50:55.636Z,100329.78
2022-10-06T00:53:24.113Z,100326.13
2022-10-06T00:55:50.941Z,100319.00
2022-10-06T00:58:17.830Z,100317.06
2022-10-06T01:00:45.825Z,100312.72
2022-10-06T01:03:19.133Z,100318.94
2022-10-06T01:05:51.500Z,100313.81
2022-10-06T01:08:19.135Z,100316.47
2022-10-06T01:10:45.917Z,100312.25
2022-10-06T01:13:14.291Z,100313.22
2022-10-06T01:15:50.533Z,100316.81
2022-10-06T01:18:20.404Z,100307.91
2022-10-06T01:20:53.466Z,100309.59
2022-10-06T01:23:20.734Z,100308.69
2022-10-06T01:25:48.070Z,100311.22
2022-10-06T01:28:15.127Z,100307.53
2022-10-06T01:30:53.736Z,100303.84
2022-10-06T01:33:23.069Z,100299.34
2022-10-06T01:35:52.529Z,100304.53
2022-10-06T01:38:20.257Z,100303.56
2022-10-06T01:40:52.859Z,100306.16
2022-10-06T01:43:19.737Z,100305.22
2022-10-06T01:45:53.883Z,100305.13
2022-10-06T01:48:20.803Z,100301.78
2022-10-06T01:50:47.901Z,100296.41
2022-10-06T01:53:14.817Z,100296.41
2022-10-06T01:55:41.652Z,100300.88
2022-10-06T01:58:10.169Z,100304.38
2022-10-06T02:00:37.870Z,100301.91
2022-10-06T02:03:05.027Z,100306.41
2022-10-06T02:05:32.503Z,100301.22
2022-10-06T02:08:00.530Z,100302.91
2022-10-06T02:10:27.350Z,100302.13
2022-10-06T02:12:54.828Z,100297.72
2022-10-06T02:15:22.826Z,100295.16
2022-10-06T02:17:51.035Z,100294.38
2022-10-06T02:20:17.948Z,100300.13
2022-10-06T02:22:44.704Z,100297.84
2022-10-06T02:25:12.551Z,100290.91
2022-10-06T02:27:39.906Z,100303.78
2022-10-06T02:30:09.095Z,100305.78
2022-10-06T02:32:39.052Z,100306.94
2022-10-06T02:35:07.604Z,100312.34
2022-10-06T02:37:35.138Z,100312.34
2022-10-06T02:40:02.866Z,100316.59
2022-10-06T02:42:31.193Z,100320.88
2022-10-06T02:44:59.040Z,100316.44
2022-10-06T02:47:25.997Z,100321.72
2022-10-06T02:49:53.665Z,100312.88
2022-10-06T02:52:20.393Z,100310.22
2022-10-06T02:54:48.312Z,100299.75
2022-10-06T02:57:15.793Z,100310.28
2022-10-06T02:59:43.046Z,100313.88
2022-10-06T03:02:10.412Z,100301.59
2022-10-06T03:04:37.265Z,100308.75
2022-10-06T03:07:05.000Z,100303.47
2022-10-06T03:09:36.069Z,100303.47
2022-10-06T03:12:03.021Z,100310.44
2022-10-06T03:14:39.255Z,100314.88
2022-10-06T03:17:10.165Z,100313.19
2022-10-06T03:19:42.775Z,100315.88
2022-10-06T03:22:10.713Z,100317.94
2022-10-06T03:24:49.986Z,100316.25
2022-10-06T03:27:16.772Z,100316.59
2022-10-06T03:29:43.641Z,100316.03
2022-10-06T03:32:10.474Z,100321.69
2022-10-06T03:34:37.949Z,100317.59
2022-10-06T03:37:07.817Z,100318.09
2022-10-06T03:39:34.629Z,100320.13
2022-10-06T03:42:01.837Z,100322.19
2022-10-06T03:44:28.557Z,100316.44
2022-10-06T03:46:55.425Z,100318.59
2022-10-06T03:49:22.281Z,100320.53
2022-10-06T03:51:49.120Z,100323.41
2022-10-06T03:54:20.735Z,100315.66
2022-10-06T03:56:49.795Z,100327.31
2022-10-06T03:59:19.496Z,100327.69
2022-10-06T04:01:48.827Z,100330.41
2022-10-06T04:04:28.690Z,100331.50
2022-10-06T04:07:00.734Z,100331.84
2022-10-06T04:09:27.902Z,100340.03
2022-10-06T04:11:55.765Z,100332.38
2022-10-06T04:14:22.658Z,100333.38
2022-10-06T04:16:51.163Z,100330.94
2022-10-06T04:19:25.439Z,100332.69
2022-10-06T04:21:54.591Z,100337.13
2022-10-06T04:24:23.670Z,100334.50
2022-10-06T04:26:52.411Z,100331.00
2022-10-06T04:29:20.640Z,100340.59
2022-10-06T04:31:52.342Z,100342.28
2022-10-06T04:34:25.294Z,100339.50
2022-10-06T04:36:52.161Z,100337.25
2022-10-06T04:39:19.090Z,100341.84
2022-10-06T04:41:47.370Z,100346.81
2022-10-06T04:44:28.525Z,100352.06
2022-10-06T04:46:58.292Z,100351.94
2022-10-06T04:49:25.399Z,100353.16
2022-10-06T04:51:53.473Z,100350.56
2022-10-06T04:54:21.119Z,100349.44
2022-10-06T04:56:51.556Z,100355.91
2022-10-06T04:59:41.475Z,100353.84
2022-10-06T05:02:09.308Z,100354.31
2022-10-06T05:04:36.061Z,100352.63
2022-10-06T05:07:03.020Z,100342.94
2022-10-06T05:09:30.520Z,100348.03
2022-10-06T05:11:58.070Z,100337.38
2022-10-06T05:14:25.491Z,100352.84
2022-10-06T05:16:52.609Z,100339.03
2022-10-06T05:19:19.476Z,100339.22
2022-10-06T05:21:47.331Z,100349.78
2022-10-06T05:24:19.633Z,100350.00
2022-10-06T05:26:46.566Z,100343.50
2022-10-06T05:29:15.358Z,100358.47
2022-10-06T05:31:43.681Z,100354.13
2022-10-06T05:34:11.866Z,100355.09
2022-10-06T05:36:39.257Z,100348.03
2022-10-06T05:39:07.532Z,100348.56
2022-10-06T05:41:39.723Z,100345.13
2022-10-06T05:44:09.322Z,100349.75
2022-10-06T05:46:38.438Z,100346.31
2022-10-06T05:49:12.921Z,100352.22
2022-10-06T05:51:47.737Z,100353.38
2022-10-06T05:54:26.880Z,100357.34
2022-10-06T05:56:53.812Z,100357.94
2022-10-06T05:59:20.796Z,100370.56
2022-10-06T06:01:47.878Z,100357.88
2022-10-06T06:04:34.864Z,100357.47
2022-10-06T06:07:01.687Z,100360.34
2022-10-06T06:09:29.028Z,100360.34
2022-10-06T06:12:00.555Z,100355.31
2022-10-06T06:15:11.763Z,100363.22
2022-10-06T06:17:43.638Z,100367.16
2022-10-06T06:20:10.605Z,100369.28
2022-10-06T06:22:37.557Z,100368.09
2022-10-06T06:25:06.014Z,100368.94
2022-10-06T06:27:32.834Z,100362.25
2022-10-06T06:29:59.721Z,100371.72
2022-10-06T06:32:28.006Z,100363.91
2022-10-06T06:34:55.639Z,100368.53
2022-10-06T06:37:22.398Z,100367.56
2022-10-06T06:39:49.378Z,100365.72
2022-10-06T06:42:16.769Z,100356.88
2022-10-06T06:44:57.940Z,100365.13
2022-10-06T06:47:35.600Z,100360.53
2022-10-06T06:50:10.159Z,100352.94
2022-10-06T06:52:38.398Z,100354.44
2022-10-06T06:55:07.235Z,100359.06
2022-10-06T06:57:34.171Z,100351.63
2022-10-06T07:00:02.705Z,100351.53
2022-10-06T07:02:30.934Z,100344.91
2022-10-06T07:04:57.947Z,100352.34
2022-10-06T07:07:24.765Z,100345.03
2022-10-06T07:09:51.907Z,100354.00
2022-10-06T07:12:21.065Z,100351.25
2022-10-06T07:15:11.784Z,100346.56
2022-10-06T07:17:59.593Z,100345.28
2022-10-06T07:20:45.070Z,100349.19
2022-10-06T07:23:36.071Z,100352.00
2022-10-06T07:26:05.706Z,100348.03
2022-10-06T07:28:32.725Z,100342.38
2022-10-06T07:31:01.327Z,100344.06
2022-10-06T07:33:32.411Z,100341.81
2022-10-06T07:36:02.273Z,100339.81
2022-10-06T07:38:29.868Z,100335.59
2022-10-06T07:43:48.906Z,100334.88
2022-10-06T07:46:16.533Z,100327.59
2022-10-06T07:49:06.533Z,100327.88
2022-10-06T07:51:33.303Z,100326.81
2022-10-06T07:54:02.682Z,100328.16
2022-10-06T07:56:39.063Z,100324.25
2022-10-06T07:59:05.894Z,100314.56
2022-10-06T08:01:32.784Z,100314.13
2022-10-06T08:03:59.678Z,100317.34
2022-10-06T08:06:26.489Z,100319.59
2022-10-06T08:08:53.693Z,100321.44
2022-10-06T08:11:21.757Z,100314.44
2022-10-06T08:13:49.087Z,100298.94
2022-10-06T08:16:21.636Z,100311.22
2022-10-06T08:18:51.067Z,100300.00
2022-10-06T08:21:20.970Z,100299.97
2022-10-06T08:23:49.400Z,100303.78
2022-10-06T08:26:17.623Z,100297.78
2022-10-06T08:28:49.447Z,100293.69
2022-10-06T08:31:17.774Z,100291.69
2022-10-06T08:33:46.093Z,100283.53
2022-10-06T08:36:18.555Z,100289.06
2022-10-06T08:38:50.522Z,100287.28
2022-10-06T08:41:26.356Z,100287.84
2022-10-06T08:44:07.597Z,100285.91
2022-10-06T08:46:43.024Z,100284.19
2022-10-06T08:49:20.498Z,100292.41
2022-10-06T08:52:08.854Z,100296.94
2022-10-06T08:54:58.441Z,100300.28
2022-10-06T08:57:47.098Z,100304.69
2022-10-06T09:00:21.119Z,100298.91
2022-10-06T09:02:50.319Z,100303.66
2022-10-06T09:05:25.563Z,100299.78
2022-10-06T09:08:12.455Z,100305.09
2022-10-06T09:10:58.197Z,100288.94
2022-10-06T09:13:30.140Z,100301.88
2022-10-06T09:16:02.225Z,100296.31
2022-10-06T09:18:49.835Z,100300.59
2022-10-06T09:21:25.734Z,100286.06
2022-10-06T09:24:05.935Z,100287.16
2022-10-06T09:26:33.862Z,100287.09
2022-10-06T09:29:00.729Z,100290.59
2022-10-06T09:31:29.695Z,100296.47
2022-10-06T09:34:04.567Z,100297.25
2022-10-06T09:36:32.163Z,100294.25
2022-10-06T09:39:00.222Z,100295.91
2022-10-06T09:41:26.873Z,100293.75
2022-10-06T09:43:57.523Z,100295.41
2022-10-06T09:46:32.333Z,100294.44
2022-10-06T09:49:16.397Z,100288.88
2022-10-06T09:52:15.360Z,100296.22
2022-10-06T09:54:43.836Z,100294.44
2022-10-06T09:57:16.205Z,100290.00
2022-10-06T09:59:45.464Z,100290.97
2022-10-06T10:02:40.910Z,100293.97
2022-10-06T10:05:20.008Z,100285.34
2022-10-06T10:08:00.316Z,100293.00
2022-10-06T10:10:27.241Z,100288.22
2022-10-06T10:12:56.216Z,100290.44
2022-10-06T10:15:26.456Z,100288.69
2022-10-06T10:17:56.611Z,100271.63
2022-10-06T10:20:28.372Z,100281.44
2022-10-06T10:22:58.421Z,100281.81
2022-10-06T10:25:33.915Z,100272.41
2022-10-06T10:28:17.433Z,100275.91
2022-10-06T10:30:56.772Z,100273.16
2022-10-06T10:33:53.881Z,100274.31
2022-10-06T10:36:39.482Z,100274.88
2022-10-06T10:39:12.728Z,100274.88
2022-10-06T10:41:52.438Z,100266.97
2022-10-06T10:44:34.104Z,100280.88
2022-10-06T10:47:18.980Z,100271.44
2022-10-06T10:49:53.375Z,100265.31
2022-10-06T10:52:27.478Z,100260.69
2022-10-06T10:55:11.708Z,100263.06
2022-10-06T10:57:41.300Z,100266.38
2022-10-06T11:00:21.177Z,100239.41
2022-10-06T11:02:48.494Z,100266.19
2022-10-06T11:05:36.291Z,100264.75
2022-10-06T11:08:25.007Z,100247.31
2022-10-06T11:10:59.325Z,100260.88
2022-10-06T11:13:37.962Z,100255.13
2022-10-06T11:16:04.705Z,100261.09
2022-10-06T11:18:48.806Z,100257.81
2022-10-06T11:21:27.974Z,100252.53
2022-10-06T11:24:02.107Z,100255.81
2022-10-06T11:26:49.052Z,100238.03
2022-10-06T11:29:23.135Z,100226.81
2022-10-06T11:32:04.483Z,100231.91
2022-10-06T11:34:31.305Z,100234.53
2022-10-06T11:37:16.627Z,100233.56
2022-10-06T11:40:17.157Z,100237.78
2022-10-06T11:43:00.636Z,100237.19
2022-10-06T11:45:38.275Z,100234.78
2022-10-06T11:48:07.740Z,100237.56
2022-10-06T11:50:36.553Z,100237.63
2022-10-06T11:53:05.757Z,100237.09
2022-10-06T11:55:32.947Z,100242.66
2022-10-06T11:58:23.454Z,100231.13
2022-10-06T12:00:54.718Z,100242.59
2022-10-06T12:03:31.184Z,100237.72
2022-10-06T12:05:57.941Z,100232.34
2022-10-06T12:08:39.497Z,100224.03
2022-10-06T12:11:42.338Z,100227.34
2022-10-06T12:17:23.944Z,100222.84
2022-10-06T12:20:00.701Z,100223.03
2022-10-06T12:22:38.869Z,100226.78
2022-10-06T12:25:18.204Z,100234.19
2022-10-06T12:27:53.956Z,100231.31
2022-10-06T12:30:30.892Z,100229.91
2022-10-06T12:32:59.342Z,100225.38
2022-10-06T12:35:33.627Z,100233.06
2022-10-06T12:38:05.934Z,100227.91
2022-10-06T12:40:40.419Z,100229.59
2022-10-06T12:43:22.534Z,100228.56
2022-10-06T12:46:19.564Z,100225.50
2022-10-06T12:49:01.514Z,100237.28
2022-10-06T12:51:40.520Z,100225.41
2022-10-06T12:54:50.782Z,100225.53
2022-10-06T12:57:20.120Z,100236.03
2022-10-06T12:59:49.565Z,100231.06
2022-10-06T13:02:22.482Z,100230.34
2022-10-06T13:04:54.584Z,100238.34
2022-10-06T13:07:31.882Z,100236.09
2022-10-06T13:10:13.890Z,100228.59
2022-10-06T13:12:47.171Z,100238.09
2022-10-06T13:15:29.756Z,100224.25
2022-10-06T13:18:00.141Z,100237.00
2022-10-06T13:20:42.353Z,100227.09
2022-10-06T13:23:25.740Z,100221.31
2022-10-06T13:25:52.444Z,100221.97
2022-10-06T13:28:28.422Z,100227.72
2022-10-06T13:30:58.568Z,100222.47
2022-10-06T13:33:40.386Z,100214.38
2022-10-06T13:36:09.037Z,100208.13
2022-10-06T13:38:37.940Z,100213.53
2022-10-06T13:41:05.232Z,100207.19
2022-10-06T13:43:36.190Z,100202.88
2022-10-06T13:46:15.004Z,100207.06
2022-10-06T13:49:03.636Z,100214.38
2022-10-06T13:51:32.315Z,100223.16
2022-10-06T13:54:03.402Z,100218.00
2022-10-06T13:56:40.082Z,100220.22
2022-10-06T13:59:31.183Z,100219.22
2022-10-06T14:02:02.503Z,100212.84
2022-10-06T14:04:29.401Z,100218.13
2022-10-06T14:07:00.820Z,100224.47
2022-10-06T14:09:31.460Z,100220.66
2022-10-06T14:12:27.738Z,100225.81
2022-10-06T14:14:54.579Z,100231.88
2022-10-06T14:17:24.348Z,100233.47
2022-10-06T14:19:51.459Z,100236.09
2022-10-06T14:22:32.250Z,100238.16
2022-10-06T14:24:59.071Z,100238.50
2022-10-06T14:27:25.844Z,100238.00
2022-10-06T14:29:52.616Z,100240.53
2022-10-06T14:32:20.309Z,100251.06
2022-10-06T14:34:47.298Z,100248.59
2022-10-06T14:37:16.990Z,100249.38
2022-10-06T14:39:45.507Z,100250.59
2022-10-06T14:42:14.960Z,100261.91
2022-10-06T14:44:43.301Z,100261.19
2022-10-06T14:47:10.116Z,100250.50
2022-10-06T14:49:37.895Z,100258.34
2022-10-06T14:52:05.615Z,100266.31
2022-10-06T14:54:34.444Z,100271.66
2022-10-06T14:57:01.267Z,100273.56
2022-10-06T14:59:28.502Z,100278.81
2022-10-06T15:01:55.351Z,100282.34
2022-10-06T15:04:25.016Z,100281.34
2022-10-06T15:07:10.041Z,100285.19
2022-10-06T15:09:36.842Z,100287.16
2022-10-06T15:12:04.104Z,100294.06
2022-10-06T15:14:31.168Z,100298.53
2022-10-06T15:17:00.677Z,100301.13
2022-10-06T15:19:27.673Z,100307.56
2022-10-06T15:21:54.554Z,100310.25
2022-10-06T15:24:21.403Z,100306.75
2022-10-06T15:27:07.331Z,100313.50
2022-10-06T15:29:35.207Z,100320.50
2022-10-06T15:32:03.787Z,100319.69
2022-10-06T15:34:33.467Z,100333.59
2022-10-06T15:37:01.007Z,100329.47
2022-10-06T15:39:30.598Z,100335.31
2022-10-06T15:41:59.496Z,100334.78
2022-10-06T15:44:26.602Z,100332.41
2022-10-06T15:46:56.904Z,100340.88
2022-10-06T15:49:29.698Z,100343.13
2022-10-06T15:51:57.343Z,100341.09
2022-10-06T15:54:26.204Z,100347.22
2022-10-06T15:56:55.059Z,100347.06
2022-10-06T15:59:23.955Z,100345.00
2022-10-06T16:01:59.878Z,100361.34
2022-10-06T16:04:40.128Z,100363.28
2022-10-06T16:07:18.339Z,100361.84
2022-10-06T16:09:47.788Z,100369.84
2022-10-06T16:12:20.301Z,100373.69
2022-10-06T16:14:47.562Z,100375.84
2022-10-06T16:17:14.815Z,100380.84
2022-10-06T16:19:42.016Z,100385.66
2022-10-06T16:22:11.470Z,100380.63
2022-10-06T16:24:38.311Z,100387.94
2022-10-06T16:27:05.583Z,100386.28
2022-10-06T16:29:32.408Z,100390.00
2022-10-06T16:31:59.339Z,100389.28
2022-10-06T16:34:26.588Z,100397.56
2022-10-06T16:36:53.552Z,100391.72
2022-10-06T16:39:22.322Z,100401.72
2022-10-06T16:41:50.065Z,100402.75
2022-10-06T16:44:17.851Z,100395.84
2022-10-06T16:46:45.020Z,100411.84
2022-10-06T16:49:12.019Z,100405.81
2022-10-06T16:51:43.924Z,100408.63
2022-10-06T16:54:12.544Z,100413.19
2022-10-06T16:56:44.713Z,100408.25
2022-10-06T16:59:13.143Z,100411.22
2022-10-06T17:01:40.688Z,100411.75
2022-10-06T17:04:16.999Z,100415.72
2022-10-06T17:06:45.406Z,100422.50
2022-10-06T17:09:17.925Z,100427.41
2022-10-06T17:11:47.567Z,100424.34
2022-10-06T17:14:14.566Z,100426.66
2022-10-06T17:16:44.965Z,100428.75
2022-10-06T17:19:16.485Z,100431.69
2022-10-06T17:21:46.708Z,100442.72
2022-10-06T17:24:17.823Z,100430.63
2022-10-06T17:26:47.360Z,100437.97
2022-10-06T17:29:18.342Z,100444.44
2022-10-06T17:31:46.475Z,100452.69
2022-10-06T17:34:21.080Z,100451.13
2022-10-06T17:36:50.973Z,100454.84
2022-10-06T17:39:20.867Z,100456.84
2022-10-06T17:41:49.003Z,100452.44
2022-10-06T17:44:26.046Z,100460.63
2022-10-06T17:46:58.739Z,100463.47
2022-10-06T17:49:26.861Z,100462.50
2022-10-06T17:51:55.018Z,100461.25
2022-10-06T17:54:24.276Z,100464.34
2022-10-06T17:56:54.242Z,100462.91
2022-10-06T17:59:23.894Z,100471.34
2022-10-06T18:01:51.874Z,100473.38
2022-10-06T18:04:19.108Z,100467.44
2022-10-06T18:06:47.033Z,100469.69
2022-10-06T18:09:14.726Z,100480.97
2022-10-06T18:11:44.007Z,100476.47
2022-10-06T18:14:12.385Z,100473.81
2022-10-06T18:16:53.639Z,100474.94
2022-10-06T18:19:26.493Z,100479.78
2022-10-06T18:22:01.550Z,100483.75
2022-10-06T18:24:30.377Z,100487.75
2022-10-06T18:27:00.115Z,100492.38
2022-10-06T18:29:32.586Z,100484.78
2022-10-06T18:32:23.578Z,100485.19
2022-10-06T18:37:33.723Z,100489.63
2022-10-06T18:40:02.535Z,100497.81
2022-10-06T18:42:29.691Z,100502.53
2022-10-06T18:45:15.039Z,100508.13
2022-10-06T18:48:20.435Z,100514.75
2022-10-06T18:50:58.942Z,100517.78
2022-10-06T18:53:25.656Z,100517.19
2022-10-06T18:55:52.530Z,100517.44
2022-10-06T18:58:19.212Z,100511.47
2022-10-06T19:00:46.998Z,100516.97
2022-10-06T19:03:13.780Z,100523.16
2022-10-06T19:05:51.122Z,100524.09
2022-10-06T19:08:17.987Z,100532.97
2022-10-06T19:11:04.794Z,100530.31
2022-10-06T19:13:31.720Z,100536.66
2022-10-06T19:16:00.034Z,100541.13
2022-10-06T19:21:31.444Z,100550.78
2022-10-06T19:24:01.060Z,100549.00
2022-10-06T19:26:28.146Z,100554.31
2022-10-06T19:28:55.028Z,100549.00
2022-10-06T19:31:22.010Z,100555.09
2022-10-06T19:33:48.895Z,100552.59
2022-10-06T19:36:17.067Z,100554.56
2022-10-06T19:38:45.551Z,100555.69
2022-10-06T19:41:31.254Z,100554.00
2022-10-06T19:43:58.160Z,100562.09
2022-10-06T19:46:25.190Z,100556.03
2022-10-06T19:48:56.612Z,100560.63
2022-10-06T19:51:24.392Z,100564.31
2022-10-06T19:53:51.843Z,100564.38
2022-10-06T19:56:20.362Z,100575.13
2022-10-06T19:58:47.294Z,100569.88
2022-10-06T20:01:14.150Z,100572.56
2022-10-06T20:03:41.618Z,100576.06
2022-10-06T20:06:14.129Z,100579.50
2022-10-06T20:08:41.854Z,100585.63
2022-10-06T20:11:13.015Z,100581.19
2022-10-06T20:13:41.874Z,100582.06
2022-10-06T20:16:11.917Z,100586.41
2022-10-06T20:18:41.287Z,100588.09
2022-10-06T20:21:16.588Z,100585.34
2022-10-06T20:23:50.507Z,100592.31
2022-10-06T20:26:20.618Z,100595.84
2022-10-06T20:28:48.319Z,100599.28
2022-10-06T20:31:19.187Z,100601.94
2022-10-06T20:33:46.519Z,100608.09
2022-10-06T20:36:13.541Z,100604.59
2022-10-06T20:38:59.065Z,100615.25
2022-10-06T20:41:25.967Z,100614.38
2022-10-06T20:43:54.112Z,100604.59
2022-10-06T20:46:21.601Z,100609.81
2022-10-06T20:48:50.216Z,100616.88
2022-10-06T20:51:18.318Z,100616.00
2022-10-06T20:53:45.266Z,100618.59
2022-10-06T20:56:12.546Z,100614.16
2022-10-06T20:58:39.758Z,100621.31
2022-10-06T21:01:10.681Z,100620.31
2022-10-06T21:03:43.626Z,100617.59
2022-10-06T21:06:14.484Z,100627.31
2022-10-06T21:08:44.040Z,100626.38
2022-10-06T21:11:13.010Z,100628.78
2022-10-06T21:13:40.742Z,100626.75
2022-10-06T21:16:07.767Z,100633.50
2022-10-06T21:18:34.883Z,100633.94
2022-10-06T21:21:04.867Z,100638.81
2022-10-06T21:23:37.126Z,100642.72
2022-10-06T21:26:07.323Z,100647.63
2022-10-06T21:28:38.592Z,100643.44
2022-10-06T21:31:16.917Z,100649.16
2022-10-06T21:33:45.686Z,100641.66
2022-10-06T21:36:17.931Z,100643.00
2022-10-06T21:38:47.824Z,100651.44
2022-10-06T21:41:32.512Z,100660.88
2022-10-06T21:44:04.645Z,100655.16
2022-10-06T21:46:34.559Z,100663.78
2022-10-06T21:49:02.806Z,100659.19
2022-10-06T21:51:30.940Z,100658.97
2022-10-06T21:53:59.729Z,100660.66
2022-10-06T21:56:27.975Z,100668.56
2022-10-06T21:58:55.945Z,100663.25
2022-10-06T22:01:31.072Z,100660.56
2022-10-06T22:04:00.224Z,100656.09
2022-10-06T22:06:28.598Z,100666.69
2022-10-06T22:08:55.997Z,100665.63
2022-10-06T22:11:25.562Z,100668.16
2022-10-06T22:13:58.113Z,100674.13
2022-10-06T22:16:27.879Z,100669.66
2022-10-06T22:18:55.110Z,100671.34
2022-10-06T22:21:23.100Z,100674.75
2022-10-06T22:24:01.176Z,100676.38
2022-10-06T22:26:30.307Z,100683.47
2022-10-06T22:28:58.489Z,100682.53
2022-10-06T22:31:26.847Z,100682.47
2022-10-06T22:33:59.181Z,100692.25
2022-10-06T22:36:27.748Z,100682.59
2022-10-06T22:38:55.690Z,100693.41
2022-10-06T22:41:23.212Z,100693.78
2022-10-06T22:43:57.408Z,100699.66
2022-10-06T22:46:28.144Z,100695.88
2022-10-06T22:48:55.336Z,100694.63
2022-10-06T22:51:22.104Z,100688.03
2022-10-06T22:53:57.648Z,100701.81
2022-10-06T22:56:25.369Z,100702.41
2022-10-06T22:58:52.168Z,100701.91
2022-10-06T23:01:19.712Z,100703.25
2022-10-06T23:03:47.448Z,100715.91
2022-10-06T23:06:15.902Z,100717.28
2022-10-06T23:08:42.701Z,100714.94
2022-10-06T23:11:13.062Z,100716.13
2022-10-06T23:13:40.826Z,100720.94
2022-10-06T23:16:10.152Z,100728.28
2022-10-06T23:18:39.476Z,100725.00
2022-10-06T23:21:10.954Z,100727.97
2022-10-06T23:23:37.953Z,100729.09
2022-10-06T23:26:10.823Z,100730.22
2022-10-06T23:28:38.425Z,100730.50
2022-10-06T23:31:06.857Z,100722.63
2022-10-06T23:33:34.545Z,100732.56
2022-10-06T23:36:09.854Z,100732.81
2022-10-06T23:38:38.213Z,100738.31
2022-10-06T23:41:06.421Z,100739.41
2022-10-06T23:43:33.807Z,100732.53
2022-10-06T23:46:00.648Z,100737.22
2022-10-06T23:48:27.476Z,100735.56
2022-10-06T23:51:05.149Z,100743.63
2022-10-06T23:53:32.411Z,100748.19
2022-10-06T23:55:59.480Z,100746.59
2022-10-06T23:58:26.882Z,100756.47
